Terminal Aerodrome Forecast
Issued by NWS Albany, NY

Current Version | Previous Version | Text Only | Print | Product List | Glossary On
Versions: 1 2 3 4 5 6 7 8 9 10 11 12 13 14 15 16 17 18
000
FTUS41 KALY 130540
TAFALB
TAF
KALB 130540Z 1306/1406 29019G32KT P6SM VCSH BKN035
     FM131500 29018G35KT P6SM BKN035
     FM140300 27010KT P6SM BKN100=

USA.gov is the U.S. government's official web portal to all federal, state and local government web resources and services.